Terminal Aerodrome Forecast
Issued by NWS

Home | Current Version | Previous Version | Text Only | Print | Product List | Glossary On
Versions: 1 2 3 4 5 6 7 8 9 10 11 12 13 14 15 16 17 18
000
FTUS46 KLOX 260539
TAFSBP
TAF
KSBP 260539Z 2606/2706 VRB05KT P6SM SKC
     FM261100 VRB05KT 2SM BR OVC003
     FM261200 VRB03KT 1/2SM FG OVC002
     FM261500 VRB03KT 3SM BR BKN003
     FM261600 27005KT P6SM SKC
     FM262000 29009KT P6SM BKN200
     FM270500 VRB05KT P6SM BKN200=

USA.gov is the U.S. government's official web portal to all federal, state and local government web resources and services.